sensor_id;sensor_type;location;lat;lon;timestamp;P1;durP1;ratioP1;P2;durP2;ratioP2
61093;SDS011;46976;52.942;6.810;2022-08-16T00:01:05;17.13;;;15.50;;
61093;SDS011;46976;52.942;6.810;2022-08-16T00:03:32;16.88;;;15.27;;
61093;SDS011;46976;52.942;6.810;2022-08-16T00:05:58;16.63;;;14.88;;
61093;SDS011;46976;52.942;6.810;2022-08-16T00:08:24;15.98;;;14.38;;
61093;SDS011;46976;52.942;6.810;2022-08-16T00:10:50;15.90;;;14.05;;
61093;SDS011;46976;52.942;6.810;2022-08-16T00:13:16;16.48;;;14.77;;
61093;SDS011;46976;52.942;6.810;2022-08-16T00:15:44;17.38;;;15.57;;
61093;SDS011;46976;52.942;6.810;2022-08-16T00:18:11;18.67;;;16.67;;
61093;SDS011;46976;52.942;6.810;2022-08-16T00:20:37;18.95;;;17.05;;
61093;SDS011;46976;52.942;6.810;2022-08-16T00:23:04;20.13;;;18.13;;
61093;SDS011;46976;52.942;6.810;2022-08-16T00:25:30;20.73;;;18.63;;
61093;SDS011;46976;52.942;6.810;2022-08-16T00:27:56;20.88;;;18.88;;
61093;SDS011;46976;52.942;6.810;2022-08-16T00:30:23;20.67;;;18.75;;
61093;SDS011;46976;52.942;6.810;2022-08-16T00:32:50;21.98;;;19.77;;
61093;SDS011;46976;52.942;6.810;2022-08-16T00:35:19;22.13;;;20.10;;
61093;SDS011;46976;52.942;6.810;2022-08-16T00:37:46;21.48;;;19.48;;
61093;SDS011;46976;52.942;6.810;2022-08-16T00:40:14;21.55;;;19.40;;
61093;SDS011;46976;52.942;6.810;2022-08-16T00:42:41;21.63;;;19.52;;
61093;SDS011;46976;52.942;6.810;2022-08-16T00:45:53;22.08;;;18.65;;
61093;SDS011;46976;52.942;6.810;2022-08-16T00:47:54;19.67;;;17.88;;
61093;SDS011;46976;52.942;6.810;2022-08-16T00:50:21;19.60;;;17.60;;
61093;SDS011;46976;52.942;6.810;2022-08-16T00:52:48;19.52;;;17.48;;
61093;SDS011;46976;52.942;6.810;2022-08-16T00:55:14;18.85;;;17.05;;
61093;SDS011;46976;52.942;6.810;2022-08-16T00:57:40;20.50;;;18.20;;
61093;SDS011;46976;52.942;6.810;2022-08-16T01:00:06;20.83;;;18.63;;
61093;SDS011;46976;52.942;6.810;2022-08-16T01:02:33;20.08;;;18.08;;
61093;SDS011;46976;52.942;6.810;2022-08-16T01:04:59;19.75;;;17.92;;
61093;SDS011;46976;52.942;6.810;2022-08-16T01:07:25;20.35;;;18.35;;
61093;SDS011;46976;52.942;6.810;2022-08-16T01:09:52;20.30;;;18.20;;
61093;SDS011;46976;52.942;6.810;2022-08-16T01:12:18;19.38;;;17.58;;
61093;SDS011;46976;52.942;6.810;2022-08-16T01:14:47;18.60;;;16.70;;
61093;SDS011;46976;52.942;6.810;2022-08-16T01:17:14;18.05;;;16.45;;
61093;SDS011;46976;52.942;6.810;2022-08-16T01:19:43;19.05;;;17.25;;
61093;SDS011;46976;52.942;6.810;2022-08-16T01:24:56;19.08;;;16.90;;
61093;SDS011;46976;52.942;6.810;2022-08-16T01:27:24;19.33;;;17.48;;
61093;SDS011;46976;52.942;6.810;2022-08-16T01:29:56;19.38;;;17.42;;
61093;SDS011;46976;52.942;6.810;2022-08-16T01:32:23;19.15;;;17.00;;
61093;SDS011;46976;52.942;6.810;2022-08-16T01:34:49;18.27;;;16.48;;
61093;SDS011;46976;52.942;6.810;2022-08-16T01:37:15;17.85;;;16.20;;
61093;SDS011;46976;52.942;6.810;2022-08-16T01:39:41;20.40;;;17.85;;
61093;SDS011;46976;52.942;6.810;2022-08-16T01:42:08;19.23;;;17.40;;
61093;SDS011;46976;52.942;6.810;2022-08-16T01:44:35;20.08;;;18.05;;
61093;SDS011;46976;52.942;6.810;2022-08-16T01:47:01;18.65;;;16.85;;
61093;SDS011;46976;52.942;6.810;2022-08-16T01:49:34;19.90;;;17.83;;
61093;SDS011;46976;52.942;6.810;2022-08-16T01:52:03;20.13;;;18.13;;
61093;SDS011;46976;52.942;6.810;2022-08-16T01:54:29;19.13;;;17.33;;
61093;SDS011;46976;52.942;6.810;2022-08-16T01:56:56;18.20;;;16.42;;
61093;SDS011;46976;52.942;6.810;2022-08-16T01:59:22;17.98;;;16.17;;
61093;SDS011;46976;52.942;6.810;2022-08-16T02:01:49;18.15;;;16.25;;
61093;SDS011;46976;52.942;6.810;2022-08-16T02:04:17;17.63;;;15.80;;
61093;SDS011;46976;52.942;6.810;2022-08-16T02:06:43;18.23;;;16.38;;
61093;SDS011;46976;52.942;6.810;2022-08-16T02:09:09;17.80;;;16.00;;
61093;SDS011;46976;52.942;6.810;2022-08-16T02:11:37;18.48;;;16.50;;
61093;SDS011;46976;52.942;6.810;2022-08-16T02:14:04;18.88;;;17.17;;
61093;SDS011;46976;52.942;6.810;2022-08-16T02:16:31;19.30;;;17.30;;
61093;SDS011;46976;52.942;6.810;2022-08-16T02:18:57;18.75;;;16.95;;
61093;SDS011;46976;52.942;6.810;2022-08-16T02:21:24;18.40;;;16.60;;
61093;SDS011;46976;52.942;6.810;2022-08-16T02:23:50;17.98;;;16.25;;
61093;SDS011;46976;52.942;6.810;2022-08-16T02:26:16;18.23;;;16.33;;
61093;SDS011;46976;52.942;6.810;2022-08-16T02:28:42;18.42;;;16.52;;
61093;SDS011;46976;52.942;6.810;2022-08-16T02:31:09;18.88;;;17.02;;
61093;SDS011;46976;52.942;6.810;2022-08-16T02:33:35;19.17;;;17.38;;
61093;SDS011;46976;52.942;6.810;2022-08-16T02:36:02;19.05;;;17.15;;
61093;SDS011;46976;52.942;6.810;2022-08-16T02:38:29;18.58;;;16.67;;
61093;SDS011;46976;52.942;6.810;2022-08-16T02:40:55;17.75;;;16.00;;
61093;SDS011;46976;52.942;6.810;2022-08-16T02:43:26;18.33;;;16.42;;
61093;SDS011;46976;52.942;6.810;2022-08-16T02:45:53;17.88;;;16.02;;
61093;SDS011;46976;52.942;6.810;2022-08-16T02:48:19;17.83;;;16.13;;
61093;SDS011;46976;52.942;6.810;2022-08-16T02:50:45;19.25;;;17.40;;
61093;SDS011;46976;52.942;6.810;2022-08-16T02:53:12;18.40;;;16.58;;
61093;SDS011;46976;52.942;6.810;2022-08-16T02:55:38;19.73;;;17.73;;
61093;SDS011;46976;52.942;6.810;2022-08-16T02:58:04;22.02;;;19.90;;
61093;SDS011;46976;52.942;6.810;2022-08-16T03:00:30;21.95;;;19.70;;
61093;SDS011;46976;52.942;6.810;2022-08-16T03:02:56;21.67;;;19.67;;
61093;SDS011;46976;52.942;6.810;2022-08-16T03:05:23;22.73;;;20.42;;
61093;SDS011;46976;52.942;6.810;2022-08-16T03:07:49;22.95;;;20.50;;
61093;SDS011;46976;52.942;6.810;2022-08-16T03:10:15;22.75;;;20.45;;
61093;SDS011;46976;52.942;6.810;2022-08-16T03:12:43;24.02;;;21.40;;
61093;SDS011;46976;52.942;6.810;2022-08-16T03:15:10;22.60;;;20.30;;
61093;SDS011;46976;52.942;6.810;2022-08-16T03:17:36;22.10;;;20.00;;
61093;SDS011;46976;52.942;6.810;2022-08-16T03:20:03;23.95;;;21.50;;
61093;SDS011;46976;52.942;6.810;2022-08-16T03:22:30;21.70;;;19.58;;
61093;SDS011;46976;52.942;6.810;2022-08-16T03:24:57;23.20;;;20.92;;
61093;SDS011;46976;52.942;6.810;2022-08-16T03:27:24;24.42;;;22.13;;
61093;SDS011;46976;52.942;6.810;2022-08-16T03:29:51;25.20;;;22.83;;
61093;SDS011;46976;52.942;6.810;2022-08-16T03:32:17;23.10;;;20.90;;
61093;SDS011;46976;52.942;6.810;2022-08-16T03:34:43;24.67;;;22.25;;
61093;SDS011;46976;52.942;6.810;2022-08-16T03:37:10;25.30;;;22.88;;
61093;SDS011;46976;52.942;6.810;2022-08-16T03:39:37;24.65;;;22.27;;
61093;SDS011;46976;52.942;6.810;2022-08-16T03:42:03;24.75;;;22.40;;
61093;SDS011;46976;52.942;6.810;2022-08-16T03:44:30;24.30;;;22.00;;
61093;SDS011;46976;52.942;6.810;2022-08-16T03:46:56;24.52;;;22.10;;
61093;SDS011;46976;52.942;6.810;2022-08-16T03:49:23;25.48;;;23.05;;
61093;SDS011;46976;52.942;6.810;2022-08-16T03:51:49;25.17;;;22.77;;
61093;SDS011;46976;52.942;6.810;2022-08-16T03:54:15;26.90;;;24.25;;
61093;SDS011;46976;52.942;6.810;2022-08-16T03:56:41;25.00;;;22.60;;
61093;SDS011;46976;52.942;6.810;2022-08-16T03:59:07;24.75;;;22.45;;
61093;SDS011;46976;52.942;6.810;2022-08-16T04:01:33;25.33;;;23.02;;
61093;SDS011;46976;52.942;6.810;2022-08-16T04:03:59;25.90;;;23.42;;
61093;SDS011;46976;52.942;6.810;2022-08-16T04:06:25;25.13;;;22.73;;
61093;SDS011;46976;52.942;6.810;2022-08-16T04:08:52;26.10;;;23.70;;
61093;SDS011;46976;52.942;6.810;2022-08-16T04:11:18;26.90;;;24.40;;
61093;SDS011;46976;52.942;6.810;2022-08-16T04:13:44;26.50;;;23.90;;
61093;SDS011;46976;52.942;6.810;2022-08-16T04:16:11;25.65;;;23.17;;
61093;SDS011;46976;52.942;6.810;2022-08-16T04:18:38;26.10;;;23.55;;
61093;SDS011;46976;52.942;6.810;2022-08-16T04:21:06;25.88;;;23.33;;
61093;SDS011;46976;52.942;6.810;2022-08-16T04:23:33;24.45;;;22.05;;
61093;SDS011;46976;52.942;6.810;2022-08-16T04:26:00;25.35;;;22.85;;
61093;SDS011;46976;52.942;6.810;2022-08-16T04:28:26;25.42;;;23.02;;
61093;SDS011;46976;52.942;6.810;2022-08-16T04:30:52;27.40;;;24.65;;
61093;SDS011;46976;52.942;6.810;2022-08-16T04:33:18;26.38;;;23.80;;
61093;SDS011;46976;52.942;6.810;2022-08-16T04:35:44;27.55;;;24.85;;
61093;SDS011;46976;52.942;6.810;2022-08-16T04:38:11;27.30;;;24.55;;
61093;SDS011;46976;52.942;6.810;2022-08-16T04:40:37;27.38;;;24.73;;
61093;SDS011;46976;52.942;6.810;2022-08-16T04:43:03;26.45;;;23.88;;
61093;SDS011;46976;52.942;6.810;2022-08-16T04:45:29;26.27;;;23.50;;
61093;SDS011;46976;52.942;6.810;2022-08-16T04:47:55;25.80;;;23.30;;
61093;SDS011;46976;52.942;6.810;2022-08-16T04:50:22;27.40;;;24.63;;
61093;SDS011;46976;52.942;6.810;2022-08-16T04:52:50;27.90;;;25.08;;
61093;SDS011;46976;52.942;6.810;2022-08-16T04:55:21;28.75;;;25.98;;
61093;SDS011;46976;52.942;6.810;2022-08-16T04:57:49;28.83;;;26.08;;
61093;SDS011;46976;52.942;6.810;2022-08-16T05:00:16;27.98;;;25.48;;
61093;SDS011;46976;52.942;6.810;2022-08-16T05:02:43;31.23;;;28.23;;
61093;SDS011;46976;52.942;6.810;2022-08-16T05:05:10;30.67;;;27.70;;
61093;SDS011;46976;52.942;6.810;2022-08-16T05:07:37;31.30;;;28.27;;
61093;SDS011;46976;52.942;6.810;2022-08-16T05:10:04;30.92;;;28.02;;
61093;SDS011;46976;52.942;6.810;2022-08-16T05:12:30;30.27;;;27.42;;
61093;SDS011;46976;52.942;6.810;2022-08-16T05:14:56;30.83;;;27.75;;
61093;SDS011;46976;52.942;6.810;2022-08-16T05:17:22;30.02;;;27.10;;
61093;SDS011;46976;52.942;6.810;2022-08-16T05:19:49;36.22;;;32.72;;
61093;SDS011;46976;52.942;6.810;2022-08-16T05:22:15;34.10;;;30.80;;
61093;SDS011;46976;52.942;6.810;2022-08-16T05:24:41;35.35;;;31.95;;
61093;SDS011;46976;52.942;6.810;2022-08-16T05:27:08;35.75;;;32.45;;
61093;SDS011;46976;52.942;6.810;2022-08-16T05:29:34;35.60;;;32.20;;
61093;SDS011;46976;52.942;6.810;2022-08-16T05:32:00;36.15;;;32.75;;
61093;SDS011;46976;52.942;6.810;2022-08-16T05:34:26;34.03;;;30.77;;
61093;SDS011;46976;52.942;6.810;2022-08-16T05:36:53;35.08;;;31.75;;
61093;SDS011;46976;52.942;6.810;2022-08-16T05:39:21;34.38;;;31.08;;
61093;SDS011;46976;52.942;6.810;2022-08-16T05:41:48;34.88;;;31.48;;
61093;SDS011;46976;52.942;6.810;2022-08-16T05:44:14;35.40;;;32.00;;
61093;SDS011;46976;52.942;6.810;2022-08-16T05:46:41;33.72;;;30.33;;
61093;SDS011;46976;52.942;6.810;2022-08-16T05:49:09;32.90;;;29.38;;
61093;SDS011;46976;52.942;6.810;2022-08-16T05:54:03;32.78;;;29.60;;
61093;SDS011;46976;52.942;6.810;2022-08-16T05:56:29;31.55;;;28.45;;
61093;SDS011;46976;52.942;6.810;2022-08-16T05:58:55;31.60;;;28.70;;
61093;SDS011;46976;52.942;6.810;2022-08-16T06:01:21;31.13;;;27.98;;
61093;SDS011;46976;52.942;6.810;2022-08-16T06:03:47;31.05;;;28.10;;
61093;SDS011;46976;52.942;6.810;2022-08-16T06:06:13;30.10;;;27.30;;
61093;SDS011;46976;52.942;6.810;2022-08-16T06:08:40;29.00;;;26.25;;
61093;SDS011;46976;52.942;6.810;2022-08-16T06:11:06;27.67;;;25.08;;
61093;SDS011;46976;52.942;6.810;2022-08-16T06:13:32;28.38;;;25.50;;
61093;SDS011;46976;52.942;6.810;2022-08-16T06:16:01;27.35;;;24.75;;
61093;SDS011;46976;52.942;6.810;2022-08-16T06:18:27;26.15;;;23.67;;
61093;SDS011;46976;52.942;6.810;2022-08-16T06:20:53;26.60;;;24.00;;
61093;SDS011;46976;52.942;6.810;2022-08-16T06:23:19;25.33;;;22.83;;
61093;SDS011;46976;52.942;6.810;2022-08-16T06:25:47;24.97;;;22.53;;
61093;SDS011;46976;52.942;6.810;2022-08-16T06:28:13;24.63;;;22.25;;
61093;SDS011;46976;52.942;6.810;2022-08-16T06:30:39;24.90;;;22.27;;
61093;SDS011;46976;52.942;6.810;2022-08-16T06:33:05;23.15;;;20.75;;
61093;SDS011;46976;52.942;6.810;2022-08-16T06:35:34;22.83;;;20.40;;
61093;SDS011;46976;52.942;6.810;2022-08-16T06:38:01;22.90;;;20.40;;
61093;SDS011;46976;52.942;6.810;2022-08-16T06:40:27;20.92;;;18.83;;
61093;SDS011;46976;52.942;6.810;2022-08-16T06:42:53;20.48;;;18.30;;
61093;SDS011;46976;52.942;6.810;2022-08-16T06:45:20;20.00;;;17.33;;
61093;SDS011;46976;52.942;6.810;2022-08-16T06:47:46;19.80;;;17.83;;
61093;SDS011;46976;52.942;6.810;2022-08-16T06:50:12;19.35;;;17.33;;
61093;SDS011;46976;52.942;6.810;2022-08-16T06:52:38;18.88;;;16.88;;
61093;SDS011;46976;52.942;6.810;2022-08-16T06:55:05;18.50;;;16.15;;
61093;SDS011;46976;52.942;6.810;2022-08-16T06:57:31;18.65;;;16.30;;
61093;SDS011;46976;52.942;6.810;2022-08-16T06:59:57;17.70;;;15.23;;
61093;SDS011;46976;52.942;6.810;2022-08-16T07:02:23;17.88;;;15.88;;
61093;SDS011;46976;52.942;6.810;2022-08-16T07:04:50;18.17;;;15.70;;
61093;SDS011;46976;52.942;6.810;2022-08-16T07:07:17;18.58;;;15.80;;
61093;SDS011;46976;52.942;6.810;2022-08-16T07:09:44;19.65;;;15.75;;
61093;SDS011;46976;52.942;6.810;2022-08-16T07:12:12;16.00;;;14.30;;
61093;SDS011;46976;52.942;6.810;2022-08-16T07:14:38;16.80;;;15.05;;
61093;SDS011;46976;52.942;6.810;2022-08-16T07:17:04;17.58;;;15.88;;
61093;SDS011;46976;52.942;6.810;2022-08-16T07:19:31;17.50;;;15.70;;
61093;SDS011;46976;52.942;6.810;2022-08-16T07:21:57;17.45;;;15.77;;
61093;SDS011;46976;52.942;6.810;2022-08-16T07:24:26;17.92;;;15.98;;
61093;SDS011;46976;52.942;6.810;2022-08-16T07:26:53;16.88;;;15.07;;
61093;SDS011;46976;52.942;6.810;2022-08-16T07:29:19;16.33;;;14.63;;
61093;SDS011;46976;52.942;6.810;2022-08-16T07:31:45;17.95;;;15.13;;
61093;SDS011;46976;52.942;6.810;2022-08-16T07:34:11;17.02;;;15.25;;
61093;SDS011;46976;52.942;6.810;2022-08-16T07:36:37;16.77;;;15.18;;
61093;SDS011;46976;52.942;6.810;2022-08-16T07:39:05;16.80;;;15.07;;
61093;SDS011;46976;52.942;6.810;2022-08-16T07:41:32;20.88;;;16.98;;
61093;SDS011;46976;52.942;6.810;2022-08-16T07:44:00;19.10;;;17.00;;
61093;SDS011;46976;52.942;6.810;2022-08-16T07:46:26;19.50;;;17.50;;
61093;SDS011;46976;52.942;6.810;2022-08-16T07:48:52;20.00;;;17.52;;
61093;SDS011;46976;52.942;6.810;2022-08-16T07:51:18;18.33;;;16.40;;
61093;SDS011;46976;52.942;6.810;2022-08-16T07:53:44;19.27;;;17.13;;
61093;SDS011;46976;52.942;6.810;2022-08-16T07:56:16;19.40;;;15.85;;
61093;SDS011;46976;52.942;6.810;2022-08-16T07:58:42;19.95;;;17.73;;
61093;SDS011;46976;52.942;6.810;2022-08-16T08:01:08;20.15;;;17.95;;
61093;SDS011;46976;52.942;6.810;2022-08-16T08:03:34;18.48;;;16.48;;
61093;SDS011;46976;52.942;6.810;2022-08-16T08:06:00;18.05;;;16.25;;
61093;SDS011;46976;52.942;6.810;2022-08-16T08:08:27;19.55;;;17.55;;
61093;SDS011;46976;52.942;6.810;2022-08-16T08:10:54;18.80;;;16.80;;
61093;SDS011;46976;52.942;6.810;2022-08-16T08:13:20;17.35;;;15.50;;
61093;SDS011;46976;52.942;6.810;2022-08-16T08:15:46;17.70;;;15.80;;
61093;SDS011;46976;52.942;6.810;2022-08-16T08:18:14;17.50;;;15.70;;
61093;SDS011;46976;52.942;6.810;2022-08-16T08:20:40;17.42;;;15.73;;
61093;SDS011;46976;52.942;6.810;2022-08-16T08:23:09;17.77;;;14.77;;
61093;SDS011;46976;52.942;6.810;2022-08-16T08:25:37;15.77;;;13.27;;
61093;SDS011;46976;52.942;6.810;2022-08-16T08:28:03;14.85;;;13.13;;
61093;SDS011;46976;52.942;6.810;2022-08-16T08:30:29;14.25;;;12.23;;
61093;SDS011;46976;52.942;6.810;2022-08-16T08:32:56;15.57;;;13.93;;
61093;SDS011;46976;52.942;6.810;2022-08-16T08:35:22;15.07;;;13.45;;
61093;SDS011;46976;52.942;6.810;2022-08-16T08:37:48;13.57;;;12.18;;
61093;SDS011;46976;52.942;6.810;2022-08-16T08:40:14;14.73;;;12.25;;
61093;SDS011;46976;52.942;6.810;2022-08-16T08:42:40;15.30;;;12.55;;
61093;SDS011;46976;52.942;6.810;2022-08-16T08:45:08;14.18;;;12.57;;
61093;SDS011;46976;52.942;6.810;2022-08-16T08:47:34;14.18;;;12.15;;
61093;SDS011;46976;52.942;6.810;2022-08-16T08:50:01;14.63;;;12.65;;
61093;SDS011;46976;52.942;6.810;2022-08-16T08:52:27;14.25;;;12.48;;
61093;SDS011;46976;52.942;6.810;2022-08-16T08:54:53;14.38;;;12.80;;
61093;SDS011;46976;52.942;6.810;2022-08-16T08:57:20;15.77;;;14.00;;
61093;SDS011;46976;52.942;6.810;2022-08-16T08:59:46;15.30;;;12.80;;
61093;SDS011;46976;52.942;6.810;2022-08-16T09:02:12;13.60;;;11.70;;
61093;SDS011;46976;52.942;6.810;2022-08-16T09:04:40;16.10;;;13.27;;
61093;SDS011;46976;52.942;6.810;2022-08-16T09:07:06;12.35;;;10.68;;
61093;SDS011;46976;52.942;6.810;2022-08-16T09:09:32;11.38;;;10.10;;
61093;SDS011;46976;52.942;6.810;2022-08-16T09:11:58;13.35;;;11.07;;
61093;SDS011;46976;52.942;6.810;2022-08-16T09:14:26;13.15;;;10.05;;
61093;SDS011;46976;52.942;6.810;2022-08-16T09:16:52;13.15;;;11.38;;
61093;SDS011;46976;52.942;6.810;2022-08-16T09:19:18;12.68;;;9.70;;
61093;SDS011;46976;52.942;6.810;2022-08-16T09:21:46;12.23;;;10.00;;
61093;SDS011;46976;52.942;6.810;2022-08-16T09:24:13;13.40;;;10.43;;
61093;SDS011;46976;52.942;6.810;2022-08-16T09:26:39;12.73;;;10.73;;
61093;SDS011;46976;52.942;6.810;2022-08-16T09:29:06;12.80;;;9.88;;
61093;SDS011;46976;52.942;6.810;2022-08-16T09:31:32;14.30;;;9.80;;
61093;SDS011;46976;52.942;6.810;2022-08-16T09:33:58;12.60;;;10.07;;
61093;SDS011;46976;52.942;6.810;2022-08-16T09:36:27;11.73;;;10.02;;
61093;SDS011;46976;52.942;6.810;2022-08-16T09:38:54;11.80;;;8.98;;
61093;SDS011;46976;52.942;6.810;2022-08-16T09:41:20;10.43;;;8.82;;
61093;SDS011;46976;52.942;6.810;2022-08-16T09:43:46;11.00;;;8.30;;
61093;SDS011;46976;52.942;6.810;2022-08-16T09:46:13;10.55;;;8.23;;
61093;SDS011;46976;52.942;6.810;2022-08-16T09:48:39;9.85;;;7.45;;
61093;SDS011;46976;52.942;6.810;2022-08-16T09:51:06;11.60;;;7.78;;
61093;SDS011;46976;52.942;6.810;2022-08-16T09:53:33;14.32;;;10.00;;
61093;SDS011;46976;52.942;6.810;2022-08-16T09:55:59;9.63;;;7.95;;
61093;SDS011;46976;52.942;6.810;2022-08-16T09:58:26;13.00;;;8.07;;
61093;SDS011;46976;52.942;6.810;2022-08-16T10:00:52;10.20;;;7.93;;
61093;SDS011;46976;52.942;6.810;2022-08-16T10:03:19;8.77;;;6.20;;
61093;SDS011;46976;52.942;6.810;2022-08-16T10:05:45;12.15;;;8.82;;
61093;SDS011;46976;52.942;6.810;2022-08-16T10:08:12;11.98;;;9.32;;
61093;SDS011;46976;52.942;6.810;2022-08-16T10:10:38;10.70;;;9.02;;
61093;SDS011;46976;52.942;6.810;2022-08-16T10:13:06;12.90;;;11.50;;
61093;SDS011;46976;52.942;6.810;2022-08-16T10:15:40;14.05;;;10.55;;
61093;SDS011;46976;52.942;6.810;2022-08-16T10:18:07;10.48;;;8.57;;
61093;SDS011;46976;52.942;6.810;2022-08-16T10:20:35;10.82;;;8.10;;
61093;SDS011;46976;52.942;6.810;2022-08-16T10:23:05;9.45;;;6.72;;
61093;SDS011;46976;52.942;6.810;2022-08-16T10:25:32;10.25;;;7.38;;
61093;SDS011;46976;52.942;6.810;2022-08-16T10:27:58;9.73;;;6.80;;
61093;SDS011;46976;52.942;6.810;2022-08-16T10:30:25;9.07;;;6.30;;
61093;SDS011;46976;52.942;6.810;2022-08-16T10:32:51;9.25;;;7.05;;
61093;SDS011;46976;52.942;6.810;2022-08-16T10:35:17;11.43;;;7.55;;
61093;SDS011;46976;52.942;6.810;2022-08-16T10:37:43;10.35;;;7.60;;
61093;SDS011;46976;52.942;6.810;2022-08-16T10:40:10;10.23;;;7.88;;
61093;SDS011;46976;52.942;6.810;2022-08-16T10:42:36;11.02;;;6.30;;
61093;SDS011;46976;52.942;6.810;2022-08-16T10:45:02;10.23;;;6.28;;
61093;SDS011;46976;52.942;6.810;2022-08-16T10:47:28;12.25;;;7.00;;
61093;SDS011;46976;52.942;6.810;2022-08-16T10:49:54;9.77;;;7.40;;
61093;SDS011;46976;52.942;6.810;2022-08-16T10:52:23;9.38;;;7.75;;
61093;SDS011;46976;52.942;6.810;2022-08-16T10:54:49;11.43;;;8.88;;
61093;SDS011;46976;52.942;6.810;2022-08-16T10:57:15;10.45;;;6.53;;
61093;SDS011;46976;52.942;6.810;2022-08-16T10:59:41;9.68;;;6.70;;
61093;SDS011;46976;52.942;6.810;2022-08-16T11:02:08;9.98;;;6.90;;
61093;SDS011;46976;52.942;6.810;2022-08-16T11:04:35;8.90;;;5.80;;
61093;SDS011;46976;52.942;6.810;2022-08-16T11:07:01;8.05;;;5.90;;
61093;SDS011;46976;52.942;6.810;2022-08-16T11:09:28;9.02;;;6.60;;
61093;SDS011;46976;52.942;6.810;2022-08-16T11:11:55;9.82;;;7.45;;
61093;SDS011;46976;52.942;6.810;2022-08-16T11:14:21;11.32;;;8.68;;
61093;SDS011;46976;52.942;6.810;2022-08-16T11:16:48;8.88;;;6.20;;
61093;SDS011;46976;52.942;6.810;2022-08-16T11:19:15;9.32;;;6.05;;
61093;SDS011;46976;52.942;6.810;2022-08-16T11:21:41;11.15;;;7.80;;
61093;SDS011;46976;52.942;6.810;2022-08-16T11:24:08;8.73;;;6.00;;
61093;SDS011;46976;52.942;6.810;2022-08-16T11:26:36;8.40;;;5.60;;
61093;SDS011;46976;52.942;6.810;2022-08-16T11:29:02;9.15;;;6.72;;
61093;SDS011;46976;52.942;6.810;2022-08-16T11:31:28;10.70;;;6.07;;
61093;SDS011;46976;52.942;6.810;2022-08-16T11:33:54;9.85;;;5.55;;
61093;SDS011;46976;52.942;6.810;2022-08-16T11:36:20;9.00;;;5.57;;
61093;SDS011;46976;52.942;6.810;2022-08-16T11:38:47;8.52;;;5.53;;
61093;SDS011;46976;52.942;6.810;2022-08-16T11:41:13;9.23;;;5.90;;
61093;SDS011;46976;52.942;6.810;2022-08-16T11:43:40;8.60;;;5.68;;
61093;SDS011;46976;52.942;6.810;2022-08-16T11:46:07;8.63;;;5.23;;
61093;SDS011;46976;52.942;6.810;2022-08-16T11:48:34;9.75;;;4.88;;
61093;SDS011;46976;52.942;6.810;2022-08-16T11:51:01;8.23;;;5.22;;
61093;SDS011;46976;52.942;6.810;2022-08-16T11:53:28;8.20;;;5.00;;
61093;SDS011;46976;52.942;6.810;2022-08-16T11:55:54;9.55;;;4.90;;
61093;SDS011;46976;52.942;6.810;2022-08-16T11:58:21;8.13;;;5.03;;
61093;SDS011;46976;52.942;6.810;2022-08-16T12:00:48;8.50;;;5.30;;
61093;SDS011;46976;52.942;6.810;2022-08-16T12:03:14;8.98;;;5.20;;
61093;SDS011;46976;52.942;6.810;2022-08-16T12:05:41;10.50;;;4.80;;
61093;SDS011;46976;52.942;6.810;2022-08-16T12:08:08;8.70;;;4.70;;
61093;SDS011;46976;52.942;6.810;2022-08-16T12:10:35;7.75;;;5.10;;
61093;SDS011;46976;52.942;6.810;2022-08-16T12:13:03;8.82;;;4.97;;
61093;SDS011;46976;52.942;6.810;2022-08-16T12:15:29;9.13;;;4.90;;
61093;SDS011;46976;52.942;6.810;2022-08-16T12:17:55;8.30;;;4.78;;
61093;SDS011;46976;52.942;6.810;2022-08-16T12:20:23;8.47;;;4.17;;
61093;SDS011;46976;52.942;6.810;2022-08-16T12:22:50;7.07;;;4.90;;
61093;SDS011;46976;52.942;6.810;2022-08-16T12:25:17;7.38;;;4.47;;
61093;SDS011;46976;52.942;6.810;2022-08-16T12:27:43;7.25;;;4.43;;
61093;SDS011;46976;52.942;6.810;2022-08-16T12:32:36;7.13;;;4.73;;
61093;SDS011;46976;52.942;6.810;2022-08-16T12:35:02;8.57;;;4.45;;
61093;SDS011;46976;52.942;6.810;2022-08-16T12:37:31;8.35;;;4.25;;
61093;SDS011;46976;52.942;6.810;2022-08-16T12:39:57;6.72;;;4.13;;
61093;SDS011;46976;52.942;6.810;2022-08-16T12:42:24;6.47;;;3.80;;
61093;SDS011;46976;52.942;6.810;2022-08-16T12:44:51;6.68;;;4.18;;
61093;SDS011;46976;52.942;6.810;2022-08-16T12:47:17;7.20;;;3.42;;
61093;SDS011;46976;52.942;6.810;2022-08-16T12:50:03;8.55;;;4.00;;
61093;SDS011;46976;52.942;6.810;2022-08-16T12:52:29;8.48;;;3.97;;
61093;SDS011;46976;52.942;6.810;2022-08-16T12:54:55;8.23;;;4.30;;
61093;SDS011;46976;52.942;6.810;2022-08-16T12:57:22;9.38;;;4.00;;
61093;SDS011;46976;52.942;6.810;2022-08-16T12:59:49;7.22;;;3.75;;
61093;SDS011;46976;52.942;6.810;2022-08-16T13:02:15;9.02;;;4.35;;
61093;SDS011;46976;52.942;6.810;2022-08-16T13:04:43;8.10;;;3.90;;
61093;SDS011;46976;52.942;6.810;2022-08-16T13:07:09;9.57;;;4.10;;
61093;SDS011;46976;52.942;6.810;2022-08-16T13:09:37;6.18;;;3.67;;
61093;SDS011;46976;52.942;6.810;2022-08-16T13:12:13;6.03;;;3.47;;
61093;SDS011;46976;52.942;6.810;2022-08-16T13:14:49;8.68;;;3.25;;
61093;SDS011;46976;52.942;6.810;2022-08-16T13:17:17;6.72;;;3.63;;
61093;SDS011;46976;52.942;6.810;2022-08-16T13:19:44;7.88;;;3.55;;
61093;SDS011;46976;52.942;6.810;2022-08-16T13:22:10;7.55;;;3.80;;
61093;SDS011;46976;52.942;6.810;2022-08-16T13:24:36;7.47;;;3.43;;
61093;SDS011;46976;52.942;6.810;2022-08-16T13:27:02;7.90;;;3.90;;
61093;SDS011;46976;52.942;6.810;2022-08-16T13:29:28;7.63;;;3.50;;
61093;SDS011;46976;52.942;6.810;2022-08-16T13:31:54;7.07;;;3.10;;
61093;SDS011;46976;52.942;6.810;2022-08-16T13:34:21;7.03;;;3.30;;
61093;SDS011;46976;52.942;6.810;2022-08-16T13:36:47;5.82;;;3.20;;
61093;SDS011;46976;52.942;6.810;2022-08-16T13:39:13;7.80;;;3.30;;
61093;SDS011;46976;52.942;6.810;2022-08-16T13:41:41;7.78;;;3.50;;
61093;SDS011;46976;52.942;6.810;2022-08-16T13:44:07;7.27;;;3.50;;
61093;SDS011;46976;52.942;6.810;2022-08-16T13:46:33;8.67;;;3.47;;
61093;SDS011;46976;52.942;6.810;2022-08-16T13:48:59;7.15;;;3.47;;
61093;SDS011;46976;52.942;6.810;2022-08-16T13:51:25;8.77;;;3.60;;
61093;SDS011;46976;52.942;6.810;2022-08-16T13:53:53;7.18;;;3.30;;
61093;SDS011;46976;52.942;6.810;2022-08-16T13:56:19;6.63;;;3.75;;
61093;SDS011;46976;52.942;6.810;2022-08-16T13:58:47;7.43;;;3.45;;
61093;SDS011;46976;52.942;6.810;2022-08-16T14:01:14;7.10;;;3.57;;
61093;SDS011;46976;52.942;6.810;2022-08-16T14:03:41;9.02;;;3.70;;
61093;SDS011;46976;52.942;6.810;2022-08-16T14:08:34;8.38;;;3.35;;
61093;SDS011;46976;52.942;6.810;2022-08-16T14:11:00;6.82;;;3.50;;
61093;SDS011;46976;52.942;6.810;2022-08-16T14:13:26;7.20;;;3.70;;
61093;SDS011;46976;52.942;6.810;2022-08-16T14:15:52;9.03;;;3.60;;
61093;SDS011;46976;52.942;6.810;2022-08-16T14:18:18;6.77;;;3.40;;
61093;SDS011;46976;52.942;6.810;2022-08-16T14:20:44;7.47;;;3.30;;
61093;SDS011;46976;52.942;6.810;2022-08-16T14:23:10;6.53;;;3.53;;
61093;SDS011;46976;52.942;6.810;2022-08-16T14:25:37;9.60;;;3.22;;
61093;SDS011;46976;52.942;6.810;2022-08-16T14:28:03;6.70;;;3.40;;
61093;SDS011;46976;52.942;6.810;2022-08-16T14:30:29;7.00;;;3.38;;
61093;SDS011;46976;52.942;6.810;2022-08-16T14:32:56;7.75;;;3.40;;
61093;SDS011;46976;52.942;6.810;2022-08-16T14:35:25;8.82;;;3.83;;